This is the latest recevied weather packets stored in our database for station/object AG1T-20. If no packets are shown the sender has not sent any weather packets the latest 10 day(s).
| Time | Temp. | Humidity | Pressure | Rain* | Wind** | Luminosity | Snow |
|---|---|---|---|---|---|---|---|
| 1777974605 | 11.67° C | 58% | 1011.1 hPa | 0 mm | - | 0 W/m² | - |
| 1777974004 | 11.67° C | 57% | 1011.1 hPa | 0 mm | - | 0 W/m² | - |
| 1777973405 | 12.22° C | 57% | 1011.1 hPa | 0 mm | - | 0 W/m² | - |
| 1777972804 | 12.78° C | 54% | 1011.1 hPa | 0 mm | - | 0 W/m² | - |
| 1777972205 | 12.78° C | 54% | 1011.1 hPa | 0 mm | - | 0 W/m² | - |
| 1777971605 | 12.78° C | 54% | 1011.1 hPa | 0 mm | - | 0 W/m² | - |
| 1777971005 | 12.78° C | 55% | 1011.2 hPa | 0 mm | - | 0 W/m² | - |
| 1777970405 | 13.33° C | 54% | 1011.2 hPa | 0 mm | - | 0 W/m² | - |
| 1777969805 | 13.89° C | 50% | 1011.2 hPa | 0 mm | - | 0 W/m² | - |
| 1777969205 | 14.44° C | 50% | 1011.2 hPa | 0 mm | - | 0 W/m² | - |
| 1777968605 | 14.44° C | 49% | 1011.2 hPa | 0 mm | - | 0 W/m² | - |
| 1777968005 | 14.44° C | 51% | 1011.2 hPa | 0 mm | - | 0 W/m² | - |
| 1777967405 | 14.44° C | 50% | 1011.2 hPa | 0 mm | - | 0 W/m² | - |
| 1777966805 | 14.44° C | 50% | 1011.2 hPa | 0 mm | - | 0 W/m² | - |
| 1777966205 | 14.44° C | 49% | 1011.2 hPa | 0 mm | - | 0 W/m² | - |
| 1777965605 | 15° C | 47% | 1011.2 hPa | 0 mm | - | 0 W/m² | - |
| 1777965005 | 15.56° C | 46% | 1011.2 hPa | 0 mm | - | 0 W/m² | - |
| 1777964405 | 15.56° C | 47% | 1011.2 hPa | 0 mm | - | 0 W/m² | - |
| 1777963805 | 15.56° C | 50% | 1011.1 hPa | 0 mm | - | 0 W/m² | - |
| 1777963205 | 15.56° C | 49% | 1011.1 hPa | 0 mm | - | 0 W/m² | - |
| 1777962605 | 15.56° C | 48% | 1011.1 hPa | 0 mm | - | 0 W/m² | - |
| 1777962005 | 15° C | 47% | 1011.1 hPa | 0 mm | - | 0 W/m² | - |
| 1777961405 | 13.89° C | 49% | 1011.1 hPa | 0 mm | - | 0 W/m² | - |
| 1777960805 | 12.78° C | 55% | 1011.1 hPa | 0 mm | - | 0 W/m² | - |
| 1777960205 | 12.22° C | 58% | 1010.3 hPa | 0 mm | - | 0 W/m² | - |
* Rain latest hour (hover to see other rain measurements)
** Current wind speed in m/s (hover to see current wind gust speed)